Time,TemperatureF,DewpointF,PressureIn,WindDirection,WindDirectionDegrees,WindSpeedMPH,WindSpeedGustMPH,Humidity,HourlyPrecipIn,Conditions,Clouds,dailyrainin,SolarRadiationWatts/m^2,SoftwareType,DateUTC
2013-02-25 00:02:00,21.0,18.0,-100.00,SW,218,0.0,2.0,89,0.00,,,0.08,1.000000,,2013-02-25 06:02:00,
2013-02-25 00:11:00,21.0,18.0,-100.00,SW,218,0.0,2.0,89,0.00,,,0.08,1.000000,,2013-02-25 06:11:00,
2013-02-25 00:21:00,21.0,18.0,-100.00,SW,218,0.0,2.0,89,0.00,,,0.08,1.000000,,2013-02-25 06:21:00,
2013-02-25 00:31:00,21.0,18.0,-100.00,SW,218,0.0,2.0,89,0.00,,,0.08,1.000000,,2013-02-25 06:31:00,
2013-02-25 01:01:00,21.0,18.0,-100.00,West,279,0.0,1.0,89,0.00,,,0.08,1.000000,,2013-02-25 07:01:00,
2013-02-25 01:11:00,21.0,18.0,-100.00,West,279,0.0,1.0,89,0.00,,,0.08,1.000000,,2013-02-25 07:11:00,
2013-02-25 01:21:00,21.0,18.0,-100.00,West,279,0.0,1.0,89,0.00,,,0.08,1.000000,,2013-02-25 07:21:00,
2013-02-25 01:31:00,21.0,18.0,-100.00,West,279,0.0,1.0,89,0.00,,,0.08,1.000000,,2013-02-25 07:31:00,
2013-02-25 01:52:00,22.0,19.0,-100.00,ESE,106,0.0,0.0,88,0.00,,,0.08,1.000000,,2013-02-25 07:52:00,
2013-02-25 02:01:00,22.0,19.0,-100.00,ESE,106,0.0,0.0,88,0.00,,,0.08,1.000000,,2013-02-25 08:01:00,
2013-02-25 02:11:00,22.0,19.0,-100.00,ESE,106,0.0,0.0,88,0.00,,,0.08,1.000000,,2013-02-25 08:11:00,
2013-02-25 02:21:00,22.0,19.0,-100.00,ESE,106,0.0,0.0,88,0.00,,,0.08,1.000000,,2013-02-25 08:21:00,
2013-02-25 02:32:00,22.0,19.0,-100.00,ESE,106,0.0,0.0,88,0.00,,,0.08,1.000000,,2013-02-25 08:32:00,
2013-02-25 02:52:00,22.0,19.0,-100.00,South,187,0.0,0.0,89,0.00,,,0.08,1.000000,,2013-02-25 08:52:00,
2013-02-25 03:01:00,22.0,19.0,-100.00,South,187,0.0,0.0,89,0.00,,,0.08,1.000000,,2013-02-25 09:01:00,
2013-02-25 03:12:00,22.0,19.0,-100.00,South,187,0.0,0.0,89,0.00,,,0.08,1.000000,,2013-02-25 09:12:00,
2013-02-25 03:21:00,22.0,19.0,-100.00,South,187,0.0,0.0,89,0.00,,,0.08,1.000000,,2013-02-25 09:21:00,
2013-02-25 03:32:00,22.0,19.0,-100.00,South,187,0.0,0.0,89,0.00,,,0.08,1.000000,,2013-02-25 09:32:00,
2013-02-25 04:01:00,22.0,19.0,-100.00,South,181,0.0,2.0,89,0.00,,,0.08,1.000000,,2013-02-25 10:01:00,
2013-02-25 04:11:00,22.0,19.0,-100.00,South,181,0.0,2.0,89,0.00,,,0.08,1.000000,,2013-02-25 10:11:00,
2013-02-25 04:21:00,22.0,19.0,-100.00,South,181,0.0,2.0,89,0.00,,,0.08,1.000000,,2013-02-25 10:21:00,
2013-02-25 04:32:00,22.0,19.0,-100.00,South,181,0.0,2.0,89,0.00,,,0.08,1.000000,,2013-02-25 10:32:00,
2013-02-25 05:01:00,23.0,20.0,-100.00,SW,218,0.0,2.0,89,0.00,,,0.08,1.000000,,2013-02-25 11:01:00,
2013-02-25 05:11:00,23.0,20.0,-100.00,SW,218,0.0,2.0,89,0.00,,,0.08,1.000000,,2013-02-25 11:11:00,
2013-02-25 05:21:00,23.0,20.0,-100.00,SW,218,0.0,2.0,89,0.00,,,0.08,1.000000,,2013-02-25 11:21:00,
2013-02-25 05:32:00,23.0,20.0,-100.00,SW,218,0.0,2.0,89,0.00,,,0.08,1.000000,,2013-02-25 11:32:00,
2013-02-25 05:52:00,24.0,21.0,-100.00,WSW,244,1.0,3.0,88,0.00,,,0.08,1.000000,,2013-02-25 11:52:00,
2013-02-25 06:02:00,24.0,21.0,-100.00,WSW,244,1.0,3.0,88,0.00,,,0.08,1.000000,,2013-02-25 12:02:00,
2013-02-25 06:11:00,24.0,21.0,-100.00,WSW,244,1.0,3.0,88,0.00,,,0.08,1.000000,,2013-02-25 12:11:00,
2013-02-25 06:21:00,24.0,21.0,-100.00,WSW,244,1.0,3.0,88,0.00,,,0.08,1.000000,,2013-02-25 12:21:00,
2013-02-25 06:32:00,24.0,21.0,-100.00,WSW,244,1.0,3.0,88,0.00,,,0.08,1.000000,,2013-02-25 12:32:00,
2013-02-25 07:02:00,23.0,20.0,-100.00,SW,220,1.0,2.0,88,0.00,,,0.08,1.000000,,2013-02-25 13:02:00,
2013-02-25 07:12:00,23.0,20.0,-100.00,SW,220,1.0,2.0,88,0.00,,,0.08,1.000000,,2013-02-25 13:12:00,
2013-02-25 07:22:00,23.0,20.0,-100.00,SW,220,1.0,2.0,88,0.00,,,0.08,1.000000,,2013-02-25 13:22:00,
2013-02-25 07:32:00,23.0,20.0,-100.00,SW,220,1.0,2.0,88,0.00,,,0.08,1.000000,,2013-02-25 13:32:00,
2013-02-25 07:52:00,25.0,21.0,-100.00,SW,216,1.0,2.0,86,0.00,,,0.08,16.000000,,2013-02-25 13:52:00,
2013-02-25 08:03:00,25.0,21.0,-100.00,SW,216,1.0,2.0,86,0.00,,,0.08,16.000000,,2013-02-25 14:03:00,
2013-02-25 08:17:00,25.0,21.0,-100.00,SW,216,1.0,2.0,86,0.00,,,0.08,16.000000,,2013-02-25 14:17:00,
2013-02-25 08:32:00,25.0,21.0,-100.00,SW,216,1.0,2.0,86,0.00,,,0.08,16.000000,,2013-02-25 14:32:00,
2013-02-25 09:02:00,29.0,23.0,-100.00,South,175,2.0,4.0,77,0.00,,,0.08,65.000000,,2013-02-25 15:02:00,
2013-02-25 09:11:00,29.0,23.0,-100.00,South,175,2.0,4.0,77,0.00,,,0.08,65.000000,,2013-02-25 15:11:00,
2013-02-25 09:21:00,29.0,23.0,-100.00,South,175,2.0,4.0,77,0.00,,,0.08,65.000000,,2013-02-25 15:21:00,
2013-02-25 09:32:00,29.0,23.0,-100.00,South,175,2.0,4.0,77,0.00,,,0.08,65.000000,,2013-02-25 15:32:00,
2013-02-25 10:02:00,31.0,22.0,-100.00,SW,235,3.0,7.0,68,0.00,,,0.08,141.000000,,2013-02-25 16:02:00,
2013-02-25 10:12:00,31.0,22.0,-100.00,SW,235,3.0,7.0,68,0.00,,,0.08,141.000000,,2013-02-25 16:12:00,
2013-02-25 10:21:00,31.0,22.0,-100.00,SW,235,3.0,7.0,68,0.00,,,0.08,141.000000,,2013-02-25 16:21:00,
2013-02-25 10:32:00,31.0,22.0,-100.00,SW,235,3.0,7.0,68,0.00,,,0.08,141.000000,,2013-02-25 16:32:00,
2013-02-25 11:01:00,33.0,22.0,-100.00,SW,227,4.0,6.0,63,0.00,,,0.07,231.000000,,2013-02-25 17:01:00,
2013-02-25 11:11:00,33.0,22.0,-100.00,SW,227,4.0,6.0,63,0.00,,,0.07,231.000000,,2013-02-25 17:11:00,
2013-02-25 11:21:00,33.0,22.0,-100.00,SW,227,4.0,6.0,63,0.00,,,0.07,231.000000,,2013-02-25 17:21:00,
2013-02-25 11:32:00,33.0,22.0,-100.00,SW,227,4.0,6.0,63,0.00,,,0.07,231.000000,,2013-02-25 17:32:00,
2013-02-25 12:01:00,34.0,21.0,-100.00,SW,235,5.0,10.0,59,0.01,,,0.08,255.000000,,2013-02-25 18:01:00,
2013-02-25 12:12:00,34.0,21.0,-100.00,SW,235,5.0,10.0,59,0.01,,,0.08,255.000000,,2013-02-25 18:12:00,
2013-02-25 12:21:00,34.0,21.0,-100.00,SW,235,5.0,10.0,59,0.01,,,0.08,255.000000,,2013-02-25 18:21:00,
2013-02-25 12:32:00,34.0,21.0,-100.00,SW,235,5.0,10.0,59,0.01,,,0.08,255.000000,,2013-02-25 18:32:00,
2013-02-25 13:01:00,38.0,22.0,-100.00,SW,232,5.0,11.0,53,0.02,,,0.09,358.000000,,2013-02-25 19:01:00,
2013-02-25 13:11:00,38.0,22.0,-100.00,SW,232,5.0,11.0,53,0.02,,,0.09,358.000000,,2013-02-25 19:11:00,
2013-02-25 13:21:00,38.0,22.0,-100.00,SW,232,5.0,11.0,53,0.02,,,0.09,358.000000,,2013-02-25 19:21:00,
2013-02-25 13:31:00,38.0,22.0,-100.00,SW,232,5.0,11.0,53,0.02,,,0.09,358.000000,,2013-02-25 19:31:00,
2013-02-25 14:01:00,34.0,22.0,-100.00,WSW,239,5.0,11.0,60,0.01,,,0.07,235.000000,,2013-02-25 20:01:00,
2013-02-25 14:11:00,34.0,22.0,-100.00,WSW,239,5.0,11.0,60,0.01,,,0.07,235.000000,,2013-02-25 20:11:00,
2013-02-25 14:21:00,34.0,22.0,-100.00,WSW,239,5.0,11.0,60,0.01,,,0.07,235.000000,,2013-02-25 20:21:00,
2013-02-25 14:32:00,34.0,22.0,-100.00,WSW,239,5.0,11.0,60,0.01,,,0.07,235.000000,,2013-02-25 20:32:00,
2013-02-25 15:01:00,34.0,22.0,-100.00,SW,225,6.0,11.0,62,0.01,,,0.06,151.000000,,2013-02-25 21:01:00,
2013-02-25 15:11:00,34.0,22.0,-100.00,SW,225,6.0,11.0,62,0.01,,,0.06,151.000000,,2013-02-25 21:11:00,
2013-02-25 15:21:00,34.0,22.0,-100.00,SW,225,6.0,11.0,62,0.01,,,0.06,151.000000,,2013-02-25 21:21:00,
2013-02-25 15:31:00,34.0,22.0,-100.00,SW,225,6.0,11.0,62,0.01,,,0.06,151.000000,,2013-02-25 21:31:00,
2013-02-25 16:01:00,34.0,23.0,-100.00,South,189,3.0,7.0,63,0.00,,,0.05,132.000000,,2013-02-25 22:01:00,
2013-02-25 16:11:00,34.0,23.0,-100.00,South,189,3.0,7.0,63,0.00,,,0.05,132.000000,,2013-02-25 22:11:00,
2013-02-25 16:21:00,34.0,23.0,-100.00,South,189,3.0,7.0,63,0.00,,,0.05,132.000000,,2013-02-25 22:21:00,
2013-02-25 16:32:00,34.0,23.0,-100.00,South,189,3.0,7.0,63,0.00,,,0.05,132.000000,,2013-02-25 22:32:00,
2013-02-25 16:52:00,32.0,23.0,-100.00,SW,224,3.0,6.0,68,0.00,,,0.05,68.000000,,2013-02-25 22:52:00,
2013-02-25 17:01:00,32.0,23.0,-100.00,SW,224,3.0,6.0,68,0.00,,,0.05,68.000000,,2013-02-25 23:01:00,
2013-02-25 17:11:00,32.0,23.0,-100.00,SW,224,3.0,6.0,68,0.00,,,0.05,68.000000,,2013-02-25 23:11:00,
2013-02-25 17:22:00,32.0,23.0,-100.00,SW,224,3.0,6.0,68,0.00,,,0.05,68.000000,,2013-02-25 23:22:00,
2013-02-25 17:31:00,32.0,23.0,-100.00,SW,224,3.0,6.0,68,0.00,,,0.05,68.000000,,2013-02-25 23:31:00,
2013-02-25 18:01:00,31.0,24.0,-100.00,SSW,194,2.0,4.0,74,0.00,,,0.05,14.000000,,2013-02-26 00:01:00,
2013-02-25 18:12:00,31.0,24.0,-100.00,SSW,194,2.0,4.0,74,0.00,,,0.05,14.000000,,2013-02-26 00:12:00,
2013-02-25 18:22:00,31.0,24.0,-100.00,SSW,194,2.0,4.0,74,0.00,,,0.05,14.000000,,2013-02-26 00:22:00,
2013-02-25 18:32:00,31.0,24.0,-100.00,SSW,194,2.0,4.0,74,0.00,,,0.05,14.000000,,2013-02-26 00:32:00,
2013-02-25 19:02:00,30.0,25.0,-100.00,WSW,241,1.0,3.0,80,0.00,,,0.05,1.000000,,2013-02-26 01:02:00,
2013-02-25 19:11:00,30.0,25.0,-100.00,WSW,241,1.0,3.0,80,0.00,,,0.05,1.000000,,2013-02-26 01:11:00,
2013-02-25 19:21:00,30.0,25.0,-100.00,WSW,241,1.0,3.0,80,0.00,,,0.05,1.000000,,2013-02-26 01:21:00,
2013-02-25 19:31:00,30.0,25.0,-100.00,WSW,241,1.0,3.0,80,0.00,,,0.05,1.000000,,2013-02-26 01:31:00,
2013-02-25 20:01:00,30.0,25.0,-100.00,SW,235,1.0,3.0,83,0.00,,,0.05,1.000000,,2013-02-26 02:01:00,
2013-02-25 20:11:00,30.0,25.0,-100.00,SW,235,1.0,3.0,83,0.00,,,0.05,1.000000,,2013-02-26 02:11:00,
2013-02-25 20:21:00,30.0,25.0,-100.00,SW,235,1.0,3.0,83,0.00,,,0.05,1.000000,,2013-02-26 02:21:00,
2013-02-25 20:32:00,30.0,25.0,-100.00,SW,235,1.0,3.0,83,0.00,,,0.05,1.000000,,2013-02-26 02:32:00,
2013-02-25 21:02:00,29.0,25.0,-100.00,SSW,209,1.0,3.0,85,0.00,,,0.05,1.000000,,2013-02-26 03:02:00,
2013-02-25 21:11:00,29.0,25.0,-100.00,SSW,209,1.0,3.0,85,0.00,,,0.05,1.000000,,2013-02-26 03:11:00,
2013-02-25 21:21:00,29.0,25.0,-100.00,SSW,209,1.0,3.0,85,0.00,,,0.05,1.000000,,2013-02-26 03:21:00,
2013-02-25 21:32:00,29.0,25.0,-100.00,SSW,209,1.0,3.0,85,0.00,,,0.05,1.000000,,2013-02-26 03:32:00,
2013-02-25 22:01:00,29.0,25.0,-100.00,NW,310,0.0,0.0,86,0.00,,,0.05,1.000000,,2013-02-26 04:01:00,
2013-02-25 22:11:00,29.0,25.0,-100.00,NW,310,0.0,0.0,86,0.00,,,0.05,1.000000,,2013-02-26 04:11:00,
2013-02-25 22:21:00,29.0,25.0,-100.00,NW,310,0.0,0.0,86,0.00,,,0.05,1.000000,,2013-02-26 04:21:00,
2013-02-25 22:32:00,29.0,25.0,-100.00,NW,310,0.0,0.0,86,0.00,,,0.05,1.000000,,2013-02-26 04:32:00,
2013-02-25 23:01:00,28.0,25.0,-100.00,ENE,57,1.0,2.0,89,0.00,,,0.05,1.000000,,2013-02-26 05:01:00,
2013-02-25 23:12:00,28.0,25.0,-100.00,ENE,57,1.0,2.0,89,0.00,,,0.05,1.000000,,2013-02-26 05:12:00,
2013-02-25 23:22:00,28.0,25.0,-100.00,ENE,57,1.0,2.0,89,0.00,,,0.05,1.000000,,2013-02-26 05:22:00,
2013-02-25 23:31:00,28.0,25.0,-100.00,ENE,57,1.0,2.0,89,0.00,,,0.05,1.000000,,2013-02-26 05:31:00,